Time;durP1;ratioP1;P1;durP2;ratioP2;P2;SDS_P1;SDS_P2;PMS_P1;PMS_P2;Temp;Humidity;BMP_temperature;BMP_pressure;BME280_temperature;BME280_humidity;BME280_pressure;Samples;Min_cycle;Max_cycle;Signal;HPM_P1;HPM_P2
2023/08/24 00:02:02;;;;;;;7.20;5.50;;;23.70;73.50;;;;;;5028340;28;20029;-64
2023/08/24 00:04:28;;;;;;;9.02;5.72;;;23.70;73.70;;;;;;5029994;28;20200;-64
2023/08/24 00:06:54;;;;;;;6.50;5.88;;;23.70;73.70;;;;;;5027206;28;20553;-65
2023/08/24 00:09:20;;;;;;;8.80;5.70;;;23.60;73.70;;;;;;5027937;28;20037;-64
2023/08/24 00:11:45;;;;;;;8.32;5.63;;;23.60;73.70;;;;;;5027466;28;20459;-64
2023/08/24 00:14:11;;;;;;;5.72;5.20;;;23.50;73.90;;;;;;5032582;28;20116;-64
2023/08/24 00:16:37;;;;;;;7.05;5.45;;;23.50;73.90;;;;;;5033374;28;20416;-64
2023/08/24 00:19:03;;;;;;;6.65;5.40;;;23.50;74.00;;;;;;5031355;28;20117;-64
2023/08/24 00:21:28;;;;;;;6.80;5.18;;;23.50;74.20;;;;;;5031500;28;20485;-64
2023/08/24 00:23:54;;;;;;;6.32;5.35;;;23.40;74.10;;;;;;5032230;28;20513;-64
2023/08/24 00:26:23;;;;;;;6.45;5.78;;;23.40;74.30;;;;;;5029066;28;21948;-64
2023/08/24 00:28:49;;;;;;;6.78;6.18;;;23.40;74.20;;;;;;5031679;28;20033;-64
2023/08/24 00:31:18;;;;;;;6.53;5.68;;;23.40;74.30;;;;;;5028115;28;20056;-64
2023/08/24 00:33:43;;;;;;;9.20;6.25;;;23.40;74.70;;;;;;5029420;28;20079;-64
2023/08/24 00:36:09;;;;;;;7.10;6.20;;;23.30;74.40;;;;;;5034130;28;20637;-64
2023/08/24 00:38:35;;;;;;;7.43;6.45;;;23.30;74.30;;;;;;5032461;28;20045;-65
2023/08/24 00:41:00;;;;;;;7.30;6.60;;;23.30;74.20;;;;;;5028505;28;20034;-64
2023/08/24 00:43:27;;;;;;;7.03;6.22;;;23.30;74.10;;;;;;5030758;28;20048;-64
2023/08/24 00:45:55;;;;;;;9.73;7.13;;;23.30;74.20;;;;;;5029935;28;20033;-65
2023/08/24 00:48:25;;;;;;;7.82;6.75;;;23.20;74.20;;;;;;5032907;28;20059;-64
2023/08/24 00:50:55;;;;;;;6.93;6.15;;;23.20;74.20;;;;;;5033274;28;20099;-64
2023/08/24 00:53:21;;;;;;;7.22;6.38;;;23.20;74.20;;;;;;5032506;28;20045;-64
2023/08/24 00:55:47;;;;;;;8.75;6.47;;;23.20;74.20;;;;;;5031533;28;20026;-64
2023/08/24 00:58:14;;;;;;;7.65;6.03;;;23.20;74.30;;;;;;5033232;28;20050;-64
2023/08/24 01:00:39;;;;;;;8.05;5.60;;;23.20;74.30;;;;;;5025825;28;20088;-64
2023/08/24 01:03:05;;;;;;;7.88;6.10;;;23.10;74.00;;;;;;5025360;28;20048;-64
2023/08/24 01:05:30;;;;;;;7.13;6.15;;;23.20;74.20;;;;;;5036479;28;20037;-64
2023/08/24 01:07:56;;;;;;;6.05;5.35;;;23.10;74.40;;;;;;5034165;28;20770;-65
2023/08/24 01:10:24;;;;;;;6.50;5.93;;;23.10;74.20;;;;;;5023454;28;20033;-64
2023/08/24 01:13:00;;;;;;;7.90;6.22;;;23.10;74.20;;;;;;5029733;28;20056;-64
2023/08/24 01:15:29;;;;;;;8.48;6.28;;;23.10;74.40;;;;;;5031056;28;20236;-64
2023/08/24 01:18:00;;;;;;;7.50;6.38;;;23.10;74.60;;;;;;5032533;28;20449;-64
2023/08/24 01:20:26;;;;;;;9.35;6.63;;;23.00;74.60;;;;;;5030686;28;20396;-64
2023/08/24 01:23:04;;;;;;;7.43;6.65;;;23.00;74.60;;;;;;5030024;28;20044;-64
2023/08/24 01:25:40;;;;;;;8.55;6.57;;;23.00;75.30;;;;;;5031717;28;20072;-65
2023/08/24 01:28:06;;;;;;;7.03;6.30;;;22.90;75.10;;;;;;5029149;28;20033;-65
2023/08/24 01:30:34;;;;;;;7.07;6.38;;;22.90;74.90;;;;;;5030597;28;20560;-64
2023/08/24 01:33:04;;;;;;;6.47;5.97;;;22.80;75.00;;;;;;5031131;28;20036;-64
2023/08/24 01:35:30;;;;;;;8.07;6.18;;;22.80;75.30;;;;;;5033836;28;20067;-64
2023/08/24 01:37:56;;;;;;;7.53;6.82;;;22.70;75.20;;;;;;5033638;28;20492;-64
2023/08/24 01:40:31;;;;;;;8.40;6.47;;;22.70;75.30;;;;;;5030286;28;20431;-64
2023/08/24 01:43:05;;;;;;;7.47;6.63;;;22.70;75.60;;;;;;5028517;28;20045;-64
2023/08/24 01:45:32;;;;;;;8.65;6.28;;;22.70;75.80;;;;;;5030652;28;20598;-64
2023/08/24 01:48:02;;;;;;;7.78;6.93;;;22.60;75.50;;;;;;5032327;28;20530;-63
2023/08/24 01:50:28;;;;;;;7.57;6.90;;;22.60;75.90;;;;;;5028066;28;20038;-64
2023/08/24 01:52:53;;;;;;;7.70;7.00;;;22.60;76.00;;;;;;5027421;28;20115;-62
2023/08/24 01:55:19;;;;;;;9.88;7.70;;;22.50;76.10;;;;;;5027170;28;20128;-64
2023/08/24 01:57:45;;;;;;;8.57;7.35;;;22.50;76.20;;;;;;5029437;28;20030;-64
2023/08/24 02:00:11;;;;;;;8.35;7.22;;;22.50;76.30;;;;;;5027930;28;20079;-64
2023/08/24 02:02:37;;;;;;;7.75;6.97;;;22.40;76.30;;;;;;5033273;28;20041;-64
2023/08/24 02:05:03;;;;;;;8.15;6.97;;;22.40;76.50;;;;;;5032828;28;20444;-65
2023/08/24 02:07:29;;;;;;;7.57;6.43;;;22.40;76.60;;;;;;5030513;28;20045;-65
2023/08/24 02:09:54;;;;;;;7.18;6.45;;;22.40;76.80;;;;;;5026876;28;20407;-64
2023/08/24 02:12:20;;;;;;;7.68;6.15;;;22.40;76.80;;;;;;5025377;28;20038;-64
2023/08/24 02:14:46;;;;;;;6.97;6.28;;;22.30;76.80;;;;;;5026048;28;20452;-64
2023/08/24 02:17:11;;;;;;;8.20;6.10;;;22.30;76.80;;;;;;5025996;28;20033;-64
2023/08/24 02:19:37;;;;;;;8.55;6.15;;;22.30;77.00;;;;;;5028977;28;20040;-65
2023/08/24 02:22:02;;;;;;;6.95;5.88;;;22.30;77.10;;;;;;5026139;28;20057;-64
2023/08/24 02:24:28;;;;;;;6.22;5.75;;;22.20;77.20;;;;;;5027089;28;20037;-64
2023/08/24 02:26:54;;;;;;;6.38;5.72;;;22.20;77.30;;;;;;5026531;28;20034;-64
2023/08/24 02:29:19;;;;;;;6.95;5.68;;;22.20;77.30;;;;;;5025771;28;20041;-64
2023/08/24 02:31:45;;;;;;;6.45;5.85;;;22.20;77.20;;;;;;5031532;28;20041;-64
2023/08/24 02:34:10;;;;;;;6.85;5.75;;;22.20;77.20;;;;;;5027095;28;20099;-65
2023/08/24 02:36:36;;;;;;;5.80;5.25;;;22.20;77.30;;;;;;5031925;28;20733;-63
2023/08/24 02:39:01;;;;;;;6.13;5.53;;;22.20;77.30;;;;;;5027173;28;20083;-64
2023/08/24 02:41:27;;;;;;;9.40;5.85;;;22.10;77.30;;;;;;5025830;28;20052;-64
2023/08/24 02:43:53;;;;;;;8.48;6.65;;;22.10;77.50;;;;;;5025093;28;20058;-64
2023/08/24 02:46:20;;;;;;;8.35;6.93;;;22.10;77.50;;;;;;5024095;28;20137;-64
2023/08/24 02:48:46;;;;;;;7.30;6.65;;;22.10;77.60;;;;;;5030233;28;20589;-64
2023/08/24 02:51:11;;;;;;;9.18;7.13;;;22.00;77.50;;;;;;5024380;28;20048;-64
2023/08/24 02:53:37;;;;;;;8.63;7.65;;;22.00;77.80;;;;;;5030877;28;20592;-64
2023/08/24 02:56:03;;;;;;;11.52;8.00;;;21.90;77.90;;;;;;5028041;28;20045;-64
2023/08/24 02:58:29;;;;;;;9.15;8.32;;;21.80;78.00;;;;;;5031033;28;20511;-63
2023/08/24 03:00:55;;;;;;;8.82;7.93;;;21.80;78.30;;;;;;5025070;28;20025;-61
2023/08/24 03:03:21;;;;;;;8.93;8.07;;;21.80;78.50;;;;;;5030549;28;20040;-64
2023/08/24 03:05:57;;;;;;;8.38;7.68;;;21.70;78.70;;;;;;5032802;28;20077;-64
2023/08/24 03:08:23;;;;;;;8.48;7.65;;;21.70;79.30;;;;;;5028886;28;20124;-65
2023/08/24 03:10:48;;;;;;;7.97;7.15;;;21.70;78.80;;;;;;5027884;28;20068;-64
2023/08/24 03:13:14;;;;;;;8.45;7.15;;;21.70;78.90;;;;;;5030766;28;20404;-64
2023/08/24 03:15:39;;;;;;;8.10;7.32;;;21.70;78.70;;;;;;5024183;28;20037;-65
2023/08/24 03:18:05;;;;;;;8.18;7.32;;;21.70;78.80;;;;;;5026464;28;20033;-65
2023/08/24 03:20:31;;;;;;;10.20;7.72;;;21.70;78.70;;;;;;5027553;28;20064;-64
2023/08/24 03:22:57;;;;;;;8.10;7.32;;;21.70;78.70;;;;;;5029217;28;20037;-64
2023/08/24 03:25:23;;;;;;;8.27;6.90;;;21.60;78.80;;;;;;5029719;28;20190;-64
2023/08/24 03:27:49;;;;;;;9.55;7.30;;;21.60;78.80;;;;;;5029020;28;20462;-63
2023/08/24 03:30:14;;;;;;;8.90;7.00;;;21.60;78.80;;;;;;5028726;28;20063;-64
2023/08/24 03:32:41;;;;;;;9.30;7.13;;;21.60;78.90;;;;;;5028087;28;20144;-64
2023/08/24 03:35:07;;;;;;;7.43;6.72;;;21.60;78.90;;;;;;5031375;28;20120;-64
2023/08/24 03:37:33;;;;;;;7.03;6.30;;;21.60;78.80;;;;;;5029287;28;20115;-64
2023/08/24 03:39:59;;;;;;;7.47;6.78;;;21.60;78.90;;;;;;5023304;28;20408;-63
2023/08/24 03:42:24;;;;;;;7.25;6.53;;;21.60;78.70;;;;;;5024623;28;20033;-65
2023/08/24 03:44:50;;;;;;;6.53;6.00;;;21.60;78.60;;;;;;5027358;28;20030;-64
2023/08/24 03:47:15;;;;;;;7.18;6.47;;;21.50;78.60;;;;;;5028050;28;20037;-64
2023/08/24 03:49:44;;;;;;;7.30;6.60;;;21.50;78.60;;;;;;5029119;28;20505;-65
2023/08/24 03:52:09;;;;;;;7.93;6.47;;;21.50;78.70;;;;;;5031408;28;20029;-64
2023/08/24 03:54:35;;;;;;;8.13;6.43;;;21.50;78.50;;;;;;5028581;28;20099;-64
2023/08/24 03:57:01;;;;;;;7.72;7.03;;;21.50;78.60;;;;;;5032948;28;20041;-64
2023/08/24 03:59:27;;;;;;;7.30;6.47;;;21.50;78.60;;;;;;5030684;28;20535;-64
2023/08/24 04:01:53;;;;;;;9.13;6.80;;;21.50;78.60;;;;;;5034008;28;20042;-64
2023/08/24 04:04:18;;;;;;;8.18;6.82;;;21.60;78.60;;;;;;5032202;28;20119;-64
2023/08/24 04:06:44;;;;;;;7.68;6.85;;;21.60;78.70;;;;;;5033145;28;20748;-64
2023/08/24 04:09:10;;;;;;;7.85;7.18;;;21.60;78.70;;;;;;5029744;28;20110;-65
2023/08/24 04:11:36;;;;;;;7.75;7.05;;;21.60;78.50;;;;;;5032663;28;20069;-64
2023/08/24 04:14:01;;;;;;;8.38;6.95;;;21.60;78.70;;;;;;5034279;28;20071;-64
2023/08/24 04:16:27;;;;;;;9.20;7.03;;;21.50;78.50;;;;;;5035819;28;20154;-64
2023/08/24 04:18:52;;;;;;;7.93;7.10;;;21.50;78.40;;;;;;5029897;28;20060;-64
2023/08/24 04:21:18;;;;;;;8.32;7.07;;;21.50;78.40;;;;;;5033413;28;20033;-64
2023/08/24 04:23:45;;;;;;;7.07;6.45;;;21.50;78.60;;;;;;5028455;28;20564;-64
2023/08/24 04:26:13;;;;;;;6.45;5.93;;;21.40;78.60;;;;;;5033442;28;20524;-64
2023/08/24 04:28:39;;;;;;;7.78;6.55;;;21.40;78.70;;;;;;5025629;28;20032;-64
2023/08/24 04:31:05;;;;;;;7.35;6.65;;;21.40;78.60;;;;;;5033908;28;20049;-64
2023/08/24 04:33:31;;;;;;;7.45;6.78;;;21.40;78.70;;;;;;5033031;28;20043;-64
2023/08/24 04:35:58;;;;;;;8.35;7.47;;;21.40;78.70;;;;;;5031502;28;20030;-64
2023/08/24 04:38:23;;;;;;;8.40;7.65;;;21.40;78.70;;;;;;5025142;28;20044;-64
2023/08/24 04:40:51;;;;;;;8.25;7.28;;;21.40;78.70;;;;;;5028840;28;20033;-64
2023/08/24 04:43:17;;;;;;;8.25;7.38;;;21.50;78.70;;;;;;5031037;28;20480;-64
2023/08/24 04:45:45;;;;;;;9.98;7.35;;;21.50;78.70;;;;;;5032284;28;20393;-64
2023/08/24 04:48:10;;;;;;;8.27;7.50;;;21.50;78.70;;;;;;5031112;28;20128;-64
2023/08/24 04:50:36;;;;;;;10.45;8.45;;;21.40;78.60;;;;;;5033507;28;20121;-64
2023/08/24 04:53:01;;;;;;;11.85;8.15;;;21.40;78.60;;;;;;5033768;28;20057;-64
2023/08/24 04:55:27;;;;;;;9.05;8.15;;;21.40;78.90;;;;;;5032306;28;20087;-64
2023/08/24 04:57:53;;;;;;;9.60;8.60;;;21.40;79.10;;;;;;5028569;28;20033;-64
2023/08/24 05:00:18;;;;;;;9.70;8.77;;;21.40;79.20;;;;;;5030084;28;20025;-64
2023/08/24 05:02:44;;;;;;;9.45;8.52;;;21.40;79.30;;;;;;5031548;28;20330;-63
2023/08/24 05:05:10;;;;;;;10.00;8.65;;;21.40;79.40;;;;;;5034253;28;20029;-64
2023/08/24 05:07:37;;;;;;;9.25;8.25;;;21.40;79.50;;;;;;5033993;28;20041;-64
2023/08/24 05:10:03;;;;;;;9.38;8.40;;;21.40;79.40;;;;;;5029082;28;20032;-64
2023/08/24 05:12:29;;;;;;;9.10;8.30;;;21.50;79.40;;;;;;5029117;28;20037;-65
2023/08/24 05:14:55;;;;;;;9.43;8.45;;;21.50;79.70;;;;;;5031488;28;20097;-63
2023/08/24 05:17:21;;;;;;;9.32;8.43;;;21.50;79.60;;;;;;5027853;28;20088;-64
2023/08/24 05:19:51;;;;;;;9.10;8.20;;;21.50;79.50;;;;;;5030955;28;20040;-64
2023/08/24 05:22:16;;;;;;;9.68;7.97;;;21.60;79.80;;;;;;5031271;28;20037;-65
2023/08/24 05:24:42;;;;;;;9.65;8.20;;;21.60;79.60;;;;;;5027369;28;20238;-64
2023/08/24 05:27:08;;;;;;;10.15;8.25;;;21.60;79.70;;;;;;5026916;28;20528;-64
2023/08/24 05:29:33;;;;;;;9.57;7.60;;;21.60;79.40;;;;;;5028133;28;20061;-64
2023/08/24 05:31:59;;;;;;;11.23;8.50;;;21.60;79.40;;;;;;5026857;28;20063;-64
2023/08/24 05:34:25;;;;;;;9.15;8.15;;;21.70;80.30;;;;;;5037148;28;20040;-64
2023/08/24 05:36:51;;;;;;;10.20;7.93;;;21.70;79.60;;;;;;5033434;28;20589;-64
2023/08/24 05:39:16;;;;;;;11.13;8.73;;;21.70;79.50;;;;;;5029647;28;20048;-62
2023/08/24 05:41:42;;;;;;;9.10;7.80;;;21.70;79.40;;;;;;5029986;28;20037;-65
2023/08/24 05:44:08;;;;;;;8.80;7.90;;;21.70;79.30;;;;;;5026661;28;20511;-65
2023/08/24 05:46:33;;;;;;;12.43;8.93;;;21.80;79.30;;;;;;5022607;28;20048;-64
2023/08/24 05:48:59;;;;;;;12.23;8.45;;;21.80;79.10;;;;;;5010335;28;21748;-64
2023/08/24 05:51:25;;;;;;;9.30;8.40;;;21.80;79.10;;;;;;5019303;28;20040;-65
2023/08/24 05:53:55;;;;;;;9.38;8.48;;;21.70;79.10;;;;;;5018133;28;20057;-64
2023/08/24 05:56:22;;;;;;;9.27;8.07;;;21.70;80.10;;;;;;5014694;28;20056;-64
2023/08/24 05:58:48;;;;;;;9.00;7.68;;;21.70;79.40;;;;;;5017242;28;20041;-64
2023/08/24 06:01:14;;;;;;;8.70;7.90;;;21.80;79.40;;;;;;5016622;28;20640;-64
2023/08/24 06:03:39;;;;;;;9.57;8.38;;;21.80;79.60;;;;;;5018354;28;20049;-63
2023/08/24 06:06:05;;;;;;;12.45;8.80;;;21.80;79.80;;;;;;5021403;28;20037;-64
2023/08/24 06:08:31;;;;;;;15.57;9.40;;;21.90;79.70;;;;;;5016930;28;20178;-65
2023/08/24 06:10:58;;;;;;;10.15;8.30;;;22.00;79.90;;;;;;5016677;28;20033;-64
2023/08/24 06:13:24;;;;;;;11.07;9.00;;;21.90;80.00;;;;;;5022250;28;20174;-65
2023/08/24 06:15:49;;;;;;;13.27;9.05;;;22.00;80.10;;;;;;5028237;28;20041;-64
2023/08/24 06:18:15;;;;;;;9.30;8.18;;;22.00;80.20;;;;;;5021259;28;20033;-64
2023/08/24 06:20:41;;;;;;;10.48;8.50;;;22.00;80.20;;;;;;5024077;28;20033;-64
2023/08/24 06:23:07;;;;;;;11.27;9.07;;;22.00;80.10;;;;;;5020680;28;20049;-65
2023/08/24 06:25:33;;;;;;;9.73;8.73;;;22.00;80.00;;;;;;5025766;28;20095;-64
2023/08/24 06:27:59;;;;;;;9.65;8.73;;;22.00;80.10;;;;;;5021105;28;20040;-64
2023/08/24 06:30:25;;;;;;;11.25;8.80;;;22.00;80.10;;;;;;5018556;28;20038;-64
2023/08/24 06:32:50;;;;;;;9.18;8.27;;;22.00;79.90;;;;;;5015715;28;20307;-64
2023/08/24 06:35:16;;;;;;;12.07;8.15;;;22.10;80.10;;;;;;5022957;28;20045;-65
2023/08/24 06:37:43;;;;;;;9.70;8.27;;;22.10;80.10;;;;;;5020768;28;20466;-65
2023/08/24 06:40:09;;;;;;;10.32;8.88;;;22.10;80.10;;;;;;5018411;28;20638;-64
2023/08/24 06:42:34;;;;;;;11.73;8.65;;;22.20;80.30;;;;;;5019044;28;20045;-65
2023/08/24 06:45:00;;;;;;;12.25;8.77;;;22.20;80.30;;;;;;5021940;28;20497;-63
2023/08/24 06:47:25;;;;;;;9.55;8.55;;;22.30;80.50;;;;;;5021830;28;20037;-64
2023/08/24 06:49:51;;;;;;;11.88;8.40;;;22.40;80.60;;;;;;5022884;28;20418;-64
2023/08/24 06:52:17;;;;;;;12.60;8.35;;;22.40;80.50;;;;;;5020232;28;20037;-63
2023/08/24 06:54:42;;;;;;;10.45;9.45;;;22.60;80.60;;;;;;5022342;28;20036;-65
2023/08/24 06:57:08;;;;;;;10.80;9.57;;;22.60;80.50;;;;;;5024650;28;20984;-66
2023/08/24 06:59:34;;;;;;;8.88;7.97;;;22.70;80.20;;;;;;5020663;28;20136;-64
2023/08/24 07:02:00;;;;;;;9.32;8.02;;;22.80;80.50;;;;;;5021872;28;20060;-64
2023/08/24 07:04:27;;;;;;;9.60;8.05;;;22.90;80.50;;;;;;5025687;28;20041;-64
2023/08/24 07:06:53;;;;;;;10.98;7.88;;;23.00;80.00;;;;;;5027203;28;20041;-64
2023/08/24 07:09:19;;;;;;;9.75;7.82;;;23.10;79.60;;;;;;5021726;28;20041;-64
2023/08/24 07:11:45;;;;;;;9.05;7.32;;;23.20;79.30;;;;;;5018109;28;20469;-65
2023/08/24 07:14:10;;;;;;;8.05;7.35;;;23.30;79.20;;;;;;5026014;28;20041;-64
2023/08/24 07:16:36;;;;;;;9.52;7.93;;;23.40;78.80;;;;;;5020474;28;20428;-65
2023/08/24 07:19:02;;;;;;;9.82;7.50;;;23.60;78.60;;;;;;5020164;28;20121;-65
2023/08/24 07:21:27;;;;;;;12.68;8.00;;;23.70;78.50;;;;;;5022815;28;20032;-65
2023/08/24 07:23:53;;;;;;;11.85;8.88;;;23.80;78.60;;;;;;5021538;28;20036;-66
2023/08/24 07:26:19;;;;;;;8.63;7.82;;;23.90;77.80;;;;;;5022958;28;20064;-65
2023/08/24 07:28:44;;;;;;;8.40;7.28;;;23.90;77.30;;;;;;5018238;28;20037;-64
2023/08/24 07:31:11;;;;;;;9.85;8.80;;;24.00;77.40;;;;;;5022965;28;20033;-64
2023/08/24 07:33:43;;;;;;;9.27;7.72;;;24.10;77.30;;;;;;5014451;28;20049;-65
2023/08/24 07:36:09;;;;;;;9.85;7.38;;;24.10;77.10;;;;;;5017547;28;20036;-65
2023/08/24 07:38:34;;;;;;;10.73;7.18;;;24.20;77.00;;;;;;5018273;28;20420;-64
2023/08/24 07:41:00;;;;;;;11.75;8.32;;;24.20;76.90;;;;;;5021938;28;20029;-65
2023/08/24 07:43:26;;;;;;;11.00;8.63;;;24.30;76.80;;;;;;5024494;28;20033;-64
2023/08/24 07:45:52;;;;;;;11.05;8.10;;;24.30;76.40;;;;;;5014108;28;20046;-64
2023/08/24 07:48:18;;;;;;;9.18;8.27;;;24.40;76.40;;;;;;5024268;28;20123;-64
2023/08/24 07:50:43;;;;;;;10.93;8.52;;;24.40;76.40;;;;;;5012805;28;20053;-64
2023/08/24 07:53:09;;;;;;;8.45;7.60;;;24.50;76.10;;;;;;5018283;28;20134;-65
2023/08/24 07:55:34;;;;;;;11.55;8.60;;;24.60;76.10;;;;;;5026808;28;20033;-65
2023/08/24 07:58:00;;;;;;;11.80;7.55;;;24.60;75.90;;;;;;5022498;28;20033;-64
2023/08/24 08:00:26;;;;;;;10.32;7.30;;;24.70;76.20;;;;;;5022363;28;20037;-64
2023/08/24 08:02:51;;;;;;;9.63;8.05;;;24.70;76.30;;;;;;5018424;28;20056;-65
2023/08/24 08:05:17;;;;;;;8.20;7.07;;;24.80;76.00;;;;;;5023893;28;20093;-65
2023/08/24 08:07:43;;;;;;;11.18;7.03;;;24.80;76.10;;;;;;5022919;28;20037;-64
2023/08/24 08:10:09;;;;;;;10.98;7.82;;;25.00;76.10;;;;;;5030025;28;20076;-64
2023/08/24 08:12:35;;;;;;;9.05;7.15;;;25.00;76.00;;;;;;5027792;28;20120;-63
2023/08/24 08:15:01;;;;;;;10.93;7.40;;;25.20;75.70;;;;;;5029099;28;20038;-64
2023/08/24 08:17:27;;;;;;;10.20;7.45;;;25.20;75.70;;;;;;5026690;28;20041;-63
2023/08/24 08:19:57;;;;;;;8.73;7.82;;;25.30;75.50;;;;;;5031075;28;20041;-64
2023/08/24 08:22:23;;;;;;;12.07;7.40;;;25.40;75.10;;;;;;5030574;28;20042;-64
2023/08/24 08:24:49;;;;;;;9.85;7.47;;;25.50;75.00;;;;;;5030989;28;20040;-64
2023/08/24 08:27:15;;;;;;;9.07;7.03;;;25.50;74.70;;;;;;5028022;28;20463;-63
2023/08/24 08:29:40;;;;;;;11.45;7.90;;;25.60;75.00;;;;;;5025288;28;20033;-64
2023/08/24 08:32:07;;;;;;;11.25;7.38;;;25.60;74.50;;;;;;5031288;28;20400;-64
2023/08/24 08:34:33;;;;;;;11.52;8.23;;;25.60;74.10;;;;;;5029752;28;20065;-64
2023/08/24 08:36:58;;;;;;;11.52;8.23;;;25.70;74.00;;;;;;5027185;28;20448;-65
2023/08/24 08:39:24;;;;;;;9.40;7.35;;;25.70;73.60;;;;;;5029464;28;20051;-63
2023/08/24 08:41:50;;;;;;;8.52;7.60;;;25.70;73.70;;;;;;5025688;28;20056;-64
2023/08/24 08:44:15;;;;;;;10.13;7.38;;;25.70;73.90;;;;;;5033507;28;20049;-64
2023/08/24 08:46:45;;;;;;;9.57;7.15;;;25.80;74.00;;;;;;5033428;28;20025;-64
2023/08/24 08:49:15;;;;;;;8.23;7.28;;;25.80;73.90;;;;;;5028949;28;20056;-64
2023/08/24 08:51:41;;;;;;;8.05;7.18;;;25.90;74.10;;;;;;5023207;28;20040;-64
2023/08/24 08:54:07;;;;;;;11.65;7.80;;;26.00;73.80;;;;;;5024194;28;20029;-65
2023/08/24 08:56:33;;;;;;;12.43;8.07;;;26.00;74.00;;;;;;5028927;28;20041;-64
2023/08/24 08:59:05;;;;;;;11.70;7.97;;;26.10;73.70;;;;;;5028118;28;20348;-63
2023/08/24 09:01:31;;;;;;;11.48;7.82;;;26.10;73.50;;;;;;5037162;28;20037;-65
2023/08/24 09:03:57;;;;;;;9.63;8.10;;;26.10;73.80;;;;;;5025819;28;20067;-63
2023/08/24 09:06:23;;;;;;;11.25;8.25;;;26.20;73.70;;;;;;5031077;28;20465;-64
2023/08/24 09:08:50;;;;;;;8.02;7.13;;;26.20;73.90;;;;;;5027403;28;20574;-65
2023/08/24 09:11:18;;;;;;;11.50;8.60;;;26.30;73.90;;;;;;5029079;28;20052;-64
2023/08/24 09:13:44;;;;;;;12.73;8.20;;;26.30;73.80;;;;;;5030497;28;20037;-64
2023/08/24 09:16:15;;;;;;;10.50;8.30;;;26.40;73.40;;;;;;5030063;28;20037;-64
2023/08/24 09:18:43;;;;;;;9.35;7.97;;;26.50;73.90;;;;;;5023679;28;20404;-63
2023/08/24 09:21:13;;;;;;;10.25;6.88;;;26.60;73.10;;;;;;5026937;28;20045;-63
2023/08/24 09:24:06;;;;;;;8.25;7.45;;;26.60;73.10;;;;;;5036747;28;20032;-63
2023/08/24 09:26:33;;;;;;;9.30;7.80;;;26.80;72.80;;;;;;5037103;28;20087;-63
2023/08/24 09:28:59;;;;;;;7.93;7.03;;;26.80;72.60;;;;;;5033751;28;20037;-62
2023/08/24 09:31:38;;;;;;;7.65;6.93;;;26.90;73.30;;;;;;5036363;28;20037;-64
2023/08/24 09:34:05;;;;;;;10.88;8.07;;;27.00;72.00;;;;;;5036768;28;20041;-62
2023/08/24 09:36:32;;;;;;;11.40;7.20;;;27.00;71.90;;;;;;5035153;28;20061;-63
2023/08/24 09:38:59;;;;;;;12.55;8.25;;;27.10;71.60;;;;;;5035534;28;20033;-63
2023/08/24 09:41:40;;;;;;;9.65;7.40;;;27.20;71.40;;;;;;5035442;28;20419;-63
2023/08/24 09:44:07;;;;;;;9.93;7.82;;;27.30;71.40;;;;;;5036260;28;20048;-62
2023/08/24 09:46:34;;;;;;;10.20;7.50;;;27.30;71.20;;;;;;5033501;28;20041;-62
2023/08/24 09:49:01;;;;;;;11.93;7.82;;;27.40;71.30;;;;;;5035218;28;20049;-62
2023/08/24 09:51:27;;;;;;;9.02;7.35;;;27.50;70.90;;;;;;5035844;28;20060;-62
2023/08/24 09:54:00;;;;;;;11.32;6.85;;;27.60;71.10;;;;;;5033243;28;20040;-62
2023/08/24 09:56:28;;;;;;;8.30;7.40;;;27.70;71.10;;;;;;5035177;28;20041;-62
2023/08/24 09:58:55;;;;;;;8.35;7.50;;;27.70;70.70;;;;;;5035259;28;20099;-63
2023/08/24 10:01:23;;;;;;;7.03;6.20;;;27.80;70.50;;;;;;5031413;28;20033;-62
2023/08/24 10:03:56;;;;;;;7.78;6.97;;;27.80;71.30;;;;;;5028876;28;20029;-63
2023/08/24 10:06:23;;;;;;;7.53;6.90;;;27.90;71.00;;;;;;5037720;28;20041;-63
2023/08/24 10:08:53;;;;;;;8.00;6.57;;;28.10;70.80;;;;;;5032818;28;20123;-63
2023/08/24 10:11:25;;;;;;;9.20;7.28;;;28.20;70.50;;;;;;5033500;28;20075;-62
2023/08/24 10:14:07;;;;;;;8.30;6.95;;;28.30;70.00;;;;;;5036253;28;20068;-63
2023/08/24 10:16:35;;;;;;;8.15;7.40;;;28.40;69.20;;;;;;5035970;28;20038;-62
2023/08/24 10:19:02;;;;;;;7.32;6.57;;;28.50;69.00;;;;;;5036806;28;20040;-63
2023/08/24 10:21:29;;;;;;;7.40;6.55;;;28.60;69.20;;;;;;5034346;28;20032;-63
2023/08/24 10:23:59;;;;;;;9.93;6.88;;;28.80;69.40;;;;;;5032003;28;20068;-62
2023/08/24 10:26:26;;;;;;;6.72;6.10;;;28.90;69.10;;;;;;5034893;28;20060;-63
2023/08/24 10:28:52;;;;;;;12.40;6.50;;;29.00;69.20;;;;;;5036078;28;20033;-63
2023/08/24 10:31:19;;;;;;;7.45;6.43;;;29.10;68.60;;;;;;5035834;28;20045;-62
2023/08/24 10:33:46;;;;;;;7.43;6.15;;;29.20;68.50;;;;;;5036267;28;20053;-63
2023/08/24 10:36:13;;;;;;;12.43;6.43;;;29.20;68.20;;;;;;5035577;28;20086;-63
2023/08/24 10:38:43;;;;;;;6.15;5.55;;;29.40;68.30;;;;;;5033884;28;20028;-63
2023/08/24 10:41:09;;;;;;;9.32;5.97;;;29.50;67.80;;;;;;5034834;28;20443;-63
2023/08/24 10:43:39;;;;;;;7.30;5.72;;;29.50;67.60;;;;;;5035361;28;20416;-63
2023/08/24 10:46:12;;;;;;;8.23;5.82;;;29.60;67.30;;;;;;5034022;28;20041;-63
2023/08/24 10:49:03;;;;;;;6.68;5.72;;;29.70;67.00;;;;;;5033374;28;20049;-63
2023/08/24 10:51:30;;;;;;;7.88;5.68;;;29.90;66.30;;;;;;5037947;28;20065;-62
2023/08/24 10:53:58;;;;;;;7.63;5.68;;;29.90;66.80;;;;;;5030267;28;20125;-63
2023/08/24 10:56:58;;;;;;;7.38;5.93;;;30.00;66.60;;;;;;5033421;28;20037;-63
2023/08/24 10:59:24;;;;;;;7.97;5.53;;;30.10;65.90;;;;;;5033360;28;20045;-63
2023/08/24 11:01:52;;;;;;;7.80;5.05;;;30.10;66.50;;;;;;5026899;28;20133;-63
2023/08/24 11:04:18;;;;;;;7.72;5.95;;;30.20;66.20;;;;;;5034724;28;20037;-63
2023/08/24 11:06:59;;;;;;;7.88;5.47;;;30.20;66.00;;;;;;5035283;28;20114;-63
2023/08/24 11:09:25;;;;;;;8.18;5.45;;;30.30;65.60;;;;;;5033063;28;20037;-64
2023/08/24 11:11:58;;;;;;;8.15;5.60;;;30.40;66.20;;;;;;5031470;28;20059;-63
2023/08/24 11:14:27;;;;;;;10.93;5.75;;;30.50;66.20;;;;;;5029980;28;21061;-63
2023/08/24 11:16:54;;;;;;;8.68;5.35;;;30.60;65.70;;;;;;5034972;28;20033;-63
2023/08/24 11:19:19;;;;;;;9.32;5.80;;;30.70;65.20;;;;;;5033828;28;20033;-61
2023/08/24 11:21:46;;;;;;;6.00;5.40;;;30.80;64.30;;;;;;5034335;28;20037;-63
2023/08/24 11:24:16;;;;;;;7.47;5.50;;;30.80;64.50;;;;;;5032641;28;20030;-64
2023/08/24 11:26:46;;;;;;;7.82;5.60;;;30.90;63.90;;;;;;5033126;28;20035;-63
2023/08/24 11:29:13;;;;;;;5.80;5.07;;;30.90;63.10;;;;;;5034550;28;20052;-65
2023/08/24 11:31:39;;;;;;;6.45;4.97;;;30.90;64.00;;;;;;5034353;28;20052;-63
2023/08/24 11:34:07;;;;;;;5.80;4.80;;;31.00;64.00;;;;;;5033427;28;20040;-64
2023/08/24 11:36:42;;;;;;;5.63;5.18;;;31.10;63.70;;;;;;5032855;28;20056;-63
2023/08/24 11:39:19;;;;;;;5.43;4.93;;;31.20;63.10;;;;;;5033493;28;20037;-64
2023/08/24 11:42:05;;;;;;;7.68;5.40;;;31.40;63.00;;;;;;5031185;28;20044;-64
2023/08/24 11:44:47;;;;;;;8.48;5.07;;;31.40;62.90;;;;;;5034185;28;20512;-62
2023/08/24 11:47:13;;;;;;;5.13;4.68;;;31.60;62.50;;;;;;5030048;28;20032;-65
2023/08/24 11:49:38;;;;;;;10.02;4.95;;;31.60;62.60;;;;;;5033724;28;20044;-63
2023/08/24 11:52:04;;;;;;;5.85;5.00;;;31.80;62.80;;;;;;5033706;28;20638;-63
2023/08/24 11:54:33;;;;;;;5.47;4.75;;;31.80;62.80;;;;;;5033370;28;20073;-63
2023/08/24 11:56:58;;;;;;;5.72;5.10;;;31.90;62.00;;;;;;5031477;28;21455;-63
2023/08/24 11:59:25;;;;;;;6.47;5.38;;;32.00;61.80;;;;;;5030785;28;20420;-63
2023/08/24 12:01:52;;;;;;;10.48;5.30;;;32.00;61.50;;;;;;5029906;28;20079;-63
2023/08/24 12:04:18;;;;;;;6.85;5.00;;;32.10;61.90;;;;;;5031579;28;20575;-62
2023/08/24 12:06:44;;;;;;;5.65;5.03;;;32.10;61.60;;;;;;5031759;28;20224;-63
2023/08/24 12:09:10;;;;;;;5.13;4.60;;;32.20;61.00;;;;;;5035410;28;20048;-64
2023/08/24 12:11:37;;;;;;;5.07;4.68;;;32.30;60.90;;;;;;5033312;28;20125;-63
2023/08/24 12:14:03;;;;;;;8.65;5.03;;;32.30;60.90;;;;;;5036309;28;20029;-63
2023/08/24 12:16:32;;;;;;;10.85;4.90;;;32.30;60.60;;;;;;5036832;28;20083;-63
2023/08/24 12:19:05;;;;;;;8.38;4.85;;;32.40;60.60;;;;;;5036976;28;20111;-62
2023/08/24 12:21:31;;;;;;;7.88;4.95;;;32.40;60.80;;;;;;5035614;28;20396;-62
2023/08/24 12:23:59;;;;;;;5.53;5.03;;;32.50;60.50;;;;;;5036544;28;21727;-64
2023/08/24 12:26:26;;;;;;;7.28;5.20;;;32.50;60.00;;;;;;5036416;28;20405;-63
2023/08/24 12:28:53;;;;;;;5.63;4.95;;;32.60;59.80;;;;;;5035709;28;20147;-64
2023/08/24 12:31:19;;;;;;;10.05;5.70;;;32.60;59.90;;;;;;5036465;28;20033;-64
2023/08/24 12:33:46;;;;;;;5.80;5.22;;;32.60;59.30;;;;;;5038109;28;20118;-63
2023/08/24 12:36:12;;;;;;;6.82;4.70;;;32.70;59.30;;;;;;5034253;28;20029;-63
2023/08/24 12:38:38;;;;;;;6.95;5.00;;;32.70;59.40;;;;;;5036148;28;20520;-64
2023/08/24 12:41:04;;;;;;;5.65;5.10;;;32.70;59.10;;;;;;5037778;28;20040;-64
2023/08/24 12:43:29;;;;;;;9.57;5.25;;;32.70;59.00;;;;;;5037884;28;20025;-64
2023/08/24 12:45:55;;;;;;;6.63;4.63;;;32.70;59.00;;;;;;5035158;28;20093;-63